Time;durP1;ratioP1;P1;durP2;ratioP2;P2;SDS_P1;SDS_P2;PMS_P1;PMS_P2;Temp;Humidity;BMP_temperature;BMP_pressure;BME280_temperature;BME280_humidity;BME280_pressure;Samples;Min_cycle;Max_cycle;Signal;HPM_P1;HPM_P2
2022/01/24 00:01:58;;;;;;;36.63;12.50;;;;;;;;;;5037664;28;20053;-57
2022/01/24 00:04:25;;;;;;;33.90;12.00;;;;;;;;;;5026503;28;20041;-54
2022/01/24 00:06:52;;;;;;;24.38;9.15;;;;;;;;;;5033208;28;20069;-61
2022/01/24 00:09:19;;;;;;;30.73;11.70;;;;;;;;;;5025213;28;20050;-58
2022/01/24 00:11:59;;;;;;;16.83;7.70;;;;;;;;;;5036376;28;20072;-61
2022/01/24 00:14:53;;;;;;;28.80;11.43;;;;;;;;;;5026970;28;20042;-57
2022/01/24 00:17:31;;;;;;;26.60;9.77;;;;;;;;;;5049518;28;20862;-59
2022/01/24 00:28:12;;;;;;;25.48;9.73;;;;;;;;;;5051429;28;20052;-60
2022/01/24 00:30:39;;;;;;;25.58;9.85;;;;;;;;;;5045591;28;20049;-59
2022/01/24 00:33:06;;;;;;;40.90;14.05;;;;;;;;;;5051327;28;20053;-60
2022/01/24 00:35:37;;;;;;;22.95;9.27;;;;;;;;;;5045408;28;20521;-57
2022/01/24 00:38:04;;;;;;;36.30;12.52;;;;;;;;;;5051525;28;20136;-60
2022/01/24 00:40:35;;;;;;;32.33;10.98;;;;;;;;;;5044953;28;20037;-61
2022/01/24 00:43:04;;;;;;;27.50;11.27;;;;;;;;;;5051064;28;20099;-60
2022/01/24 00:45:40;;;;;;;25.80;9.07;;;;;;;;;;5044645;28;20065;-61
2022/01/24 00:53:51;;;;;;;28.88;10.43;;;;;;;;;;5047823;28;20056;-53
2022/01/24 00:56:18;;;;;;;31.92;12.05;;;;;;;;;;5043259;28;20063;-57
2022/01/24 00:58:44;;;;;;;26.75;10.57;;;;;;;;;;5050365;28;20060;-53
2022/01/24 01:01:12;;;;;;;24.73;8.73;;;;;;;;;;5044731;28;20483;-57
2022/01/24 01:03:43;;;;;;;26.15;9.82;;;;;;;;;;5049727;28;20076;-55
2022/01/24 01:06:11;;;;;;;25.17;10.32;;;;;;;;;;5043693;28;20053;-57
2022/01/24 01:19:33;;;;;;;27.35;9.88;;;;;;;;;;5030129;28;20111;-57
2022/01/24 01:22:00;;;;;;;22.23;8.70;;;;;;;;;;5023731;28;20149;-58
2022/01/24 01:24:29;;;;;;;28.25;11.25;;;;;;;;;;5029878;28;20049;-57
2022/01/24 01:27:01;;;;;;;27.77;11.75;;;;;;;;;;5015447;28;20448;-56
2022/01/24 01:29:32;;;;;;;25.52;10.63;;;;;;;;;;5030673;28;20072;-59
2022/01/24 01:32:10;;;;;;;28.05;11.68;;;;;;;;;;5028677;28;20053;-54
2022/01/24 01:35:00;;;;;;;;;;;;;;;;;;5028947;28;20053;-56
2022/01/24 01:54:25;;;;;;;24.00;9.73;;;;;;;;;;5015386;28;20070;-58
2022/01/24 01:56:51;;;;;;;30.50;11.90;;;;;;;;;;5026275;28;20054;-60
2022/01/24 01:59:18;;;;;;;30.95;12.73;;;;;;;;;;5020589;28;20060;-58
2022/01/24 02:01:44;;;;;;;30.50;12.50;;;;;;;;;;5026637;28;20054;-62
2022/01/24 02:04:14;;;;;;;35.05;13.02;;;;;;;;;;5020711;28;20518;-57
2022/01/24 02:06:42;;;;;;;31.33;13.70;;;;;;;;;;5010535;28;20143;-61
2022/01/24 02:09:10;;;;;;;31.13;13.40;;;;;;;;;;5008274;28;20136;-61
2022/01/24 02:11:37;;;;;;;23.23;10.80;;;;;;;;;;5028100;28;20056;-60
2022/01/24 02:14:09;;;;;;;29.35;12.90;;;;;;;;;;5022014;28;20378;-60
2022/01/24 02:16:43;;;;;;;35.00;12.85;;;;;;;;;;5028468;28;20053;-58
2022/01/24 02:19:20;;;;;;;30.20;12.55;;;;;;;;;;5022156;28;20072;-60
2022/01/24 02:22:06;;;;;;;31.13;12.77;;;;;;;;;;5029543;28;20103;-59
2022/01/24 02:24:40;;;;;;;29.45;12.25;;;;;;;;;;5023697;28;20049;-61
2022/01/24 02:27:07;;;;;;;29.90;10.82;;;;;;;;;;5029598;28;20045;-59
2022/01/24 02:29:48;;;;;;;35.67;14.13;;;;;;;;;;5020861;28;20065;-58
2022/01/24 02:32:14;;;;;;;36.10;13.15;;;;;;;;;;5021170;28;20135;-57
2022/01/24 02:34:45;;;;;;;31.00;12.85;;;;;;;;;;5013239;28;20054;-57
2022/01/24 02:37:15;;;;;;;31.08;13.13;;;;;;;;;;5026493;28;20052;-58
2022/01/24 02:39:47;;;;;;;32.30;13.55;;;;;;;;;;5020505;28;20140;-58
2022/01/24 02:50:44;;;;;;;40.75;13.93;;;;;;;;;;5023494;28;20414;-55
2022/01/24 02:53:12;;;;;;;34.05;13.60;;;;;;;;;;5027323;28;20054;-57
2022/01/24 02:55:41;;;;;;;33.00;12.53;;;;;;;;;;5022089;28;20472;-57
2022/01/24 02:58:07;;;;;;;32.88;13.32;;;;;;;;;;5029238;28;20307;-58
2022/01/24 03:00:35;;;;;;;35.05;14.43;;;;;;;;;;5023457;28;20064;-57
2022/01/24 03:03:01;;;;;;;31.02;14.13;;;;;;;;;;5048400;28;20068;-57
2022/01/24 03:05:37;;;;;;;32.17;12.65;;;;;;;;;;5049140;28;20103;-56
2022/01/24 03:08:05;;;;;;;28.48;12.60;;;;;;;;;;5046226;28;20053;-54
2022/01/24 03:10:38;;;;;;;38.58;14.85;;;;;;;;;;5048422;28;20057;-61
2022/01/24 03:13:19;;;;;;;32.97;12.23;;;;;;;;;;5043659;28;20056;-61
2022/01/24 03:15:47;;;;;;;28.83;12.77;;;;;;;;;;5035792;28;20049;-62
2022/01/24 03:18:14;;;;;;;31.83;13.13;;;;;;;;;;5023375;28;20057;-55
2022/01/24 03:20:41;;;;;;;31.73;12.82;;;;;;;;;;5029141;28;20050;-58
2022/01/24 03:23:08;;;;;;;26.40;11.65;;;;;;;;;;5023626;28;20053;-58
2022/01/24 03:25:38;;;;;;;37.03;12.90;;;;;;;;;;5028420;28;20053;-59
2022/01/24 03:28:05;;;;;;;33.30;13.40;;;;;;;;;;5031986;28;20053;-59
2022/01/24 03:30:32;;;;;;;28.38;11.80;;;;;;;;;;5032538;28;20053;-58
2022/01/24 03:32:58;;;;;;;22.52;9.57;;;;;;;;;;5026594;28;20056;-58
2022/01/24 03:35:27;;;;;;;28.58;11.77;;;;;;;;;;5052218;28;20447;-57
2022/01/24 03:37:54;;;;;;;34.40;13.32;;;;;;;;;;5046546;28;20569;-57
2022/01/24 03:40:20;;;;;;;35.38;14.25;;;;;;;;;;5051505;28;20067;-57
2022/01/24 03:42:48;;;;;;;34.13;13.65;;;;;;;;;;5044269;28;20135;-55
2022/01/24 03:45:16;;;;;;;33.40;13.27;;;;;;;;;;5049845;28;20083;-57
2022/01/24 03:47:56;;;;;;;29.73;12.05;;;;;;;;;;5045578;28;20088;-57
2022/01/24 03:50:23;;;;;;;22.00;10.05;;;;;;;;;;5047243;28;20562;-57
2022/01/24 03:52:50;;;;;;;34.40;13.20;;;;;;;;;;5026046;28;21827;-57
2022/01/24 03:55:31;;;;;;;34.67;13.55;;;;;;;;;;5032153;28;20057;-59
2022/01/24 03:57:59;;;;;;;33.97;13.10;;;;;;;;;;5026739;28;20117;-57
2022/01/24 04:00:25;;;;;;;37.00;14.10;;;;;;;;;;5032407;28;20062;-58
2022/01/24 04:02:52;;;;;;;32.25;13.13;;;;;;;;;;5029984;28;20053;-58
2022/01/24 04:05:21;;;;;;;36.15;14.48;;;;;;;;;;5028891;28;20136;-58
2022/01/24 04:07:47;;;;;;;;;;;;;;;;;;5031800;28;20069;-58
2022/01/24 04:10:18;;;;;;;30.98;11.02;;;;;;;;;;5033748;28;19931;-60
2022/01/24 04:12:44;;;;;;;29.17;12.68;;;;;;;;;;5051800;28;20041;-57
2022/01/24 04:15:45;;;;;;;32.38;13.32;;;;;;;;;;5045264;28;20080;-57
2022/01/24 04:23:40;;;;;;;30.83;12.05;;;;;;;;;;5050910;28;20549;-58
2022/01/24 04:26:06;;;;;;;33.20;12.95;;;;;;;;;;5062759;28;20055;-58
2022/01/24 04:28:33;;;;;;;28.70;12.27;;;;;;;;;;5049090;28;20050;-57
2022/01/24 04:31:01;;;;;;;30.27;12.38;;;;;;;;;;5027616;28;20069;-53
2022/01/24 04:33:28;;;;;;;29.58;12.73;;;;;;;;;;5030735;28;20115;-58
2022/01/24 04:35:54;;;;;;;26.95;11.30;;;;;;;;;;5023822;28;20049;-59
2022/01/24 04:38:21;;;;;;;32.33;13.27;;;;;;;;;;5030829;28;20049;-55
2022/01/24 04:40:48;;;;;;;25.65;10.90;;;;;;;;;;5028225;28;20049;-57
2022/01/24 04:43:29;;;;;;;26.42;11.52;;;;;;;;;;5052808;28;20079;-60
2022/01/24 04:46:05;;;;;;;31.10;12.07;;;;;;;;;;5047708;28;20053;-57
2022/01/24 04:51:31;;;;;;;30.23;11.32;;;;;;;;;;5023654;28;20090;-55
2022/01/24 04:54:37;;;;;;;24.42;10.27;;;;;;;;;;5031076;28;20065;-58
2022/01/24 04:57:03;;;;;;;21.65;9.05;;;;;;;;;;5026044;28;20104;-56
2022/01/24 04:59:30;;;;;;;24.23;10.70;;;;;;;;;;5030155;28;20069;-58
2022/01/24 05:01:57;;;;;;;30.52;11.43;;;;;;;;;;5020092;28;20081;-59
2022/01/24 05:04:27;;;;;;;23.30;9.98;;;;;;;;;;5029512;28;20053;-58
2022/01/24 05:06:54;;;;;;;24.30;10.20;;;;;;;;;;5023311;28;20045;-55
2022/01/24 05:09:21;;;;;;;25.10;10.73;;;;;;;;;;5030275;28;20053;-57
2022/01/24 05:11:52;;;;;;;28.52;11.25;;;;;;;;;;5023411;28;20055;-57
2022/01/24 05:25:17;;;;;;;27.77;11.05;;;;;;;;;;5028320;28;20053;-59
2022/01/24 05:27:43;;;;;;;27.63;11.32;;;;;;;;;;5006567;28;20047;-55
2022/01/24 05:30:10;;;;;;;27.30;10.75;;;;;;;;;;5020818;28;20053;-57
2022/01/24 05:32:37;;;;;;;28.83;11.63;;;;;;;;;;5032602;28;20049;-55
2022/01/24 05:35:08;;;;;;;28.80;12.00;;;;;;;;;;5049189;28;20045;-57
2022/01/24 05:37:35;;;;;;;28.15;11.18;;;;;;;;;;5041782;28;20062;-58
2022/01/24 05:40:01;;;;;;;20.77;9.27;;;;;;;;;;5049721;28;20064;-56
2022/01/24 05:42:28;;;;;;;24.88;9.93;;;;;;;;;;5043371;28;20098;-58
2022/01/24 05:44:55;;;;;;;20.70;8.90;;;;;;;;;;5035830;28;20057;-59
2022/01/24 05:47:21;;;;;;;21.70;8.85;;;;;;;;;;5023692;28;20053;-60
2022/01/24 05:49:47;;;;;;;19.42;8.05;;;;;;;;;;5029795;28;20495;-56
2022/01/24 05:52:15;;;;;;;20.08;8.13;;;;;;;;;;5023817;28;20053;-53
2022/01/24 05:54:50;;;;;;;20.83;8.55;;;;;;;;;;5030249;28;20053;-59
2022/01/24 05:57:17;;;;;;;20.80;8.80;;;;;;;;;;5030460;28;20132;-58
2022/01/24 05:59:43;;;;;;;19.48;8.32;;;;;;;;;;5041098;28;20057;-56
2022/01/24 06:02:10;;;;;;;17.70;8.18;;;;;;;;;;5047049;28;20081;-55
2022/01/24 06:04:39;;;;;;;22.52;9.13;;;;;;;;;;5041145;28;20053;-60
2022/01/24 06:07:05;;;;;;;19.23;8.80;;;;;;;;;;5027019;28;20050;-60
2022/01/24 06:09:33;;;;;;;21.70;8.55;;;;;;;;;;5035832;28;20049;-61
2022/01/24 06:12:00;;;;;;;18.05;7.07;;;;;;;;;;5047426;28;20085;-61
2022/01/24 06:14:27;;;;;;;16.40;7.10;;;;;;;;;;5021759;28;20053;-63
2022/01/24 06:16:54;;;;;;;16.80;6.88;;;;;;;;;;5034742;28;20053;-61
2022/01/24 06:19:20;;;;;;;16.00;7.50;;;;;;;;;;5022806;28;20139;-59
2022/01/24 06:21:46;;;;;;;18.92;7.38;;;;;;;;;;5026814;28;20072;-58
2022/01/24 06:24:15;;;;;;;20.95;8.18;;;;;;;;;;5019521;28;20136;-58
2022/01/24 06:26:43;;;;;;;17.00;7.70;;;;;;;;;;5045110;28;20053;-58
2022/01/24 06:29:10;;;;;;;17.80;7.45;;;;;;;;;;5039083;28;20506;-57
2022/01/24 06:31:37;;;;;;;19.45;6.60;;;;;;;;;;5027959;28;20068;-58
2022/01/24 06:34:09;;;;;;;19.45;7.60;;;;;;;;;;5019125;28;21549;-57
2022/01/24 06:36:35;;;;;;;15.88;6.47;;;;;;;;;;5044492;28;20053;-57
2022/01/24 06:39:04;;;;;;;15.80;7.05;;;;;;;;;;5037839;28;20049;-54
2022/01/24 06:41:33;;;;;;;18.70;6.93;;;;;;;;;;5061080;28;20079;-58
2022/01/24 06:44:04;;;;;;;13.88;6.28;;;;;;;;;;5045468;28;20053;-59
2022/01/24 06:46:30;;;;;;;13.95;6.05;;;;;;;;;;5040356;28;20893;-57
2022/01/24 06:48:57;;;;;;;18.17;6.60;;;;;;;;;;5044762;28;20053;-61
2022/01/24 06:51:23;;;;;;;15.43;6.78;;;;;;;;;;5021879;28;20136;-56
2022/01/24 06:53:52;;;;;;;14.77;5.97;;;;;;;;;;5028339;28;20061;-58
2022/01/24 06:56:19;;;;;;;14.15;6.13;;;;;;;;;;5022593;28;20073;-56
2022/01/24 06:58:45;;;;;;;13.75;5.65;;;;;;;;;;5032482;28;20087;-57
2022/01/24 07:01:13;;;;;;;18.33;7.68;;;;;;;;;;5044694;28;20053;-57
2022/01/24 07:03:42;;;;;;;16.98;6.80;;;;;;;;;;5046478;28;20127;-55
2022/01/24 07:06:08;;;;;;;;;;;;;;;;;;5031553;28;20133;-53
2022/01/24 07:08:35;;;;;;;11.70;4.90;;;;;;;;;;5053160;28;20385;-57
2022/01/24 07:11:02;;;;;;;17.05;7.07;;;;;;;;;;5050079;28;20140;-59
2022/01/24 07:13:29;;;;;;;15.77;7.22;;;;;;;;;;5052288;28;20079;-58
2022/01/24 07:16:01;;;;;;;13.93;5.80;;;;;;;;;;5048046;28;20053;-55
2022/01/24 07:21:13;;;;;;;20.35;8.18;;;;;;;;;;5053629;28;20093;-59
2022/01/24 07:23:46;;;;;;;18.98;8.02;;;;;;;;;;5032242;28;20107;-61
2022/01/24 07:26:12;;;;;;;18.08;7.28;;;;;;;;;;5027322;28;20049;-58
2022/01/24 07:28:39;;;;;;;17.90;8.00;;;;;;;;;;5033294;28;20084;-61
2022/01/24 07:31:06;;;;;;;21.33;8.63;;;;;;;;;;5027866;28;20064;-58
2022/01/24 07:33:35;;;;;;;16.50;6.50;;;;;;;;;;5052688;28;20049;-60
2022/01/24 07:36:02;;;;;;;19.42;7.78;;;;;;;;;;5051964;28;20106;-59
2022/01/24 07:38:28;;;;;;;18.95;7.93;;;;;;;;;;5046271;28;20060;-61
2022/01/24 07:40:56;;;;;;;16.52;6.65;;;;;;;;;;5052534;28;20049;-60
2022/01/24 07:43:22;;;;;;;17.63;7.32;;;;;;;;;;5046006;28;20053;-59
2022/01/24 07:45:50;;;;;;;12.57;5.25;;;;;;;;;;5052807;28;20057;-61
2022/01/24 07:48:17;;;;;;;15.77;6.70;;;;;;;;;;5053387;28;20144;-61
2022/01/24 07:50:46;;;;;;;15.48;6.55;;;;;;;;;;5054374;28;20060;-54
2022/01/24 07:53:14;;;;;;;14.13;6.50;;;;;;;;;;5045766;28;20048;-57
2022/01/24 07:55:41;;;;;;;20.45;7.75;;;;;;;;;;5051565;28;20041;-58
2022/01/24 07:58:08;;;;;;;16.55;7.03;;;;;;;;;;5043241;28;20257;-60
2022/01/24 08:00:35;;;;;;;16.75;7.07;;;;;;;;;;5050208;28;20049;-58
2022/01/24 08:03:01;;;;;;;21.77;8.18;;;;;;;;;;5044728;28;20059;-58
2022/01/24 08:05:28;;;;;;;15.70;6.70;;;;;;;;;;5051198;28;20085;-58
2022/01/24 08:07:56;;;;;;;15.55;7.35;;;;;;;;;;5045268;28;20045;-58
2022/01/24 08:10:23;;;;;;;13.65;6.88;;;;;;;;;;5051908;28;20053;-57
2022/01/24 08:12:50;;;;;;;13.80;6.18;;;;;;;;;;5044294;28;20055;-55
2022/01/24 08:15:19;;;;;;;14.45;6.53;;;;;;;;;;5051834;28;20060;-56
2022/01/24 08:17:47;;;;;;;15.40;6.13;;;;;;;;;;5050125;28;20103;-61
2022/01/24 08:20:15;;;;;;;16.47;6.43;;;;;;;;;;5050078;28;20053;-56
2022/01/24 08:22:42;;;;;;;13.97;5.67;;;;;;;;;;5051130;28;20302;-57
2022/01/24 08:25:11;;;;;;;12.05;5.55;;;;;;;;;;5042925;28;20300;-57
2022/01/24 08:27:38;;;;;;;16.60;6.43;;;;;;;;;;5050327;28;20052;-58
2022/01/24 08:30:05;;;;;;;14.48;6.72;;;;;;;;;;5043717;28;20049;-56
2022/01/24 08:32:32;;;;;;;14.32;5.57;;;;;;;;;;5050106;28;20049;-57
2022/01/24 08:35:00;;;;;;;15.30;6.55;;;;;;;;;;5042786;28;20049;-59
2022/01/24 08:37:27;;;;;;;12.45;5.47;;;;;;;;;;5049823;28;20045;-57
2022/01/24 08:39:54;;;;;;;13.93;5.60;;;;;;;;;;5044697;28;20037;-58
2022/01/24 08:42:29;;;;;;;15.43;5.75;;;;;;;;;;5051380;28;20052;-55
2022/01/24 08:47:40;;;;;;;14.32;5.10;;;;;;;;;;5051462;28;20126;-57
2022/01/24 08:50:07;;;;;;;15.10;6.38;;;;;;;;;;5045096;28;20056;-54
2022/01/24 08:52:33;;;;;;;14.95;5.97;;;;;;;;;;5049799;28;20053;-54
2022/01/24 08:55:02;;;;;;;14.07;5.95;;;;;;;;;;5044165;28;20053;-56
2022/01/24 08:57:30;;;;;;;15.20;6.60;;;;;;;;;;5051469;28;20056;-59
2022/01/24 08:59:57;;;;;;;12.80;6.03;;;;;;;;;;5044467;28;20102;-61
2022/01/24 09:02:24;;;;;;;12.90;5.00;;;;;;;;;;5050915;28;20296;-59
2022/01/24 09:04:51;;;;;;;16.00;5.78;;;;;;;;;;5044327;28;20045;-61
2022/01/24 09:07:19;;;;;;;11.57;4.78;;;;;;;;;;5051426;28;20049;-60
2022/01/24 09:09:46;;;;;;;11.55;5.15;;;;;;;;;;5050824;28;20049;-56
2022/01/24 09:12:13;;;;;;;9.55;4.60;;;;;;;;;;5048125;28;20140;-59
2022/01/24 09:14:45;;;;;;;12.77;4.55;;;;;;;;;;5050273;28;20461;-60
2022/01/24 09:17:11;;;;;;;13.52;5.82;;;;;;;;;;5048362;28;20068;-60
2022/01/24 09:19:38;;;;;;;13.35;5.47;;;;;;;;;;5057700;28;20197;-54
2022/01/24 09:22:05;;;;;;;12.18;5.60;;;;;;;;;;5043602;28;20422;-57
2022/01/24 09:24:34;;;;;;;11.43;4.45;;;;;;;;;;5047953;28;20048;-57
2022/01/24 09:27:00;;;;;;;14.15;5.30;;;;;;;;;;5043903;28;20048;-58
2022/01/24 09:29:27;;;;;;;10.00;4.35;;;;;;;;;;5048763;28;20083;-55
2022/01/24 09:31:56;;;;;;;14.85;5.55;;;;;;;;;;5044999;28;20087;-57
2022/01/24 09:34:24;;;;;;;11.13;4.30;;;;;;;;;;5050782;28;20099;-56
2022/01/24 09:36:51;;;;;;;11.02;5.03;;;;;;;;;;5042377;28;20052;-57
2022/01/24 09:39:18;;;;;;;14.35;4.47;;;;;;;;;;5047512;28;20130;-59
2022/01/24 09:41:45;;;;;;;12.77;4.90;;;;;;;;;;5042315;28;20060;-58
2022/01/24 09:44:24;;;;;;;14.35;5.93;;;;;;;;;;5049392;28;20056;-56
2022/01/24 09:46:51;;;;;;;13.52;5.60;;;;;;;;;;5043622;28;20045;-57
2022/01/24 09:49:19;;;;;;;13.48;5.55;;;;;;;;;;5049965;28;20102;-61
2022/01/24 09:51:45;;;;;;;13.23;5.22;;;;;;;;;;5043172;28;20067;-57
2022/01/24 09:54:13;;;;;;;10.35;5.18;;;;;;;;;;5049303;28;20096;-55
2022/01/24 09:56:40;;;;;;;10.43;4.47;;;;;;;;;;5043991;28;20111;-55
2022/01/24 09:59:07;;;;;;;11.20;5.05;;;;;;;;;;5046545;28;20052;-57
2022/01/24 10:01:34;;;;;;;10.65;5.50;;;;;;;;;;5049035;28;20076;-57
2022/01/24 10:04:21;;;;;;;11.20;4.75;;;;;;;;;;5042652;28;20491;-57
2022/01/24 10:07:03;;;;;;;11.30;4.30;;;;;;;;;;5049571;28;20071;-57
2022/01/24 10:09:31;;;;;;;10.23;4.60;;;;;;;;;;5007630;28;20054;-57
2022/01/24 10:12:13;;;;;;;9.57;4.28;;;;;;;;;;5010532;28;20046;-56
2022/01/24 10:17:24;;;;;;;8.80;4.47;;;;;;;;;;5029649;28;20052;-54
2022/01/24 10:19:51;;;;;;;8.93;4.18;;;;;;;;;;5026724;28;20132;-58
2022/01/24 10:22:21;;;;;;;12.32;5.22;;;;;;;;;;5029678;28;20096;-57
2022/01/24 10:24:52;;;;;;;8.75;4.30;;;;;;;;;;5023353;28;20045;-58
2022/01/24 10:27:20;;;;;;;12.30;4.72;;;;;;;;;;5038936;28;20140;-56
2022/01/24 10:29:48;;;;;;;12.95;5.40;;;;;;;;;;5032972;28;20061;-55
2022/01/24 10:32:35;;;;;;;12.30;4.78;;;;;;;;;;5028926;28;20080;-56
2022/01/24 10:35:24;;;;;;;12.70;5.90;;;;;;;;;;5022665;28;20072;-58
2022/01/24 10:37:55;;;;;;;13.25;5.45;;;;;;;;;;5029702;28;20045;-59
2022/01/24 10:40:31;;;;;;;14.13;6.13;;;;;;;;;;5036848;28;20045;-54
2022/01/24 10:43:12;;;;;;;11.38;5.03;;;;;;;;;;5029982;28;20113;-54
2022/01/24 10:45:45;;;;;;;11.27;5.10;;;;;;;;;;5057243;28;20053;-60
2022/01/24 10:48:22;;;;;;;11.52;5.85;;;;;;;;;;5052833;28;20080;-61
2022/01/24 10:50:49;;;;;;;10.25;4.82;;;;;;;;;;5028650;28;20229;-57
2022/01/24 10:53:17;;;;;;;9.70;5.05;;;;;;;;;;5028647;28;20107;-57
2022/01/24 10:55:45;;;;;;;11.67;5.47;;;;;;;;;;5036389;28;20111;-58
2022/01/24 10:58:16;;;;;;;16.13;7.35;;;;;;;;;;5043283;28;20300;-58
2022/01/24 11:00:42;;;;;;;11.73;6.45;;;;;;;;;;5027794;28;20064;-53
2022/01/24 11:03:15;;;;;;;12.02;6.05;;;;;;;;;;5048296;28;20053;-57
2022/01/24 11:05:43;;;;;;;11.93;5.15;;;;;;;;;;5040873;28;20052;-57
2022/01/24 11:08:11;;;;;;;12.48;5.57;;;;;;;;;;5048431;28;20079;-58
2022/01/24 11:10:40;;;;;;;15.48;7.40;;;;;;;;;;5041493;28;20065;-60
2022/01/24 11:13:07;;;;;;;10.80;6.05;;;;;;;;;;5047783;28;20080;-54
2022/01/24 11:15:34;;;;;;;17.83;7.57;;;;;;;;;;5026184;28;20049;-57
2022/01/24 11:18:01;;;;;;;14.52;6.88;;;;;;;;;;5008780;28;20057;-58
2022/01/24 11:20:31;;;;;;;14.52;7.65;;;;;;;;;;5006752;28;20046;-57
2022/01/24 11:23:01;;;;;;;8.00;3.75;;;;;;;;;;5027135;28;20514;-52
2022/01/24 11:25:30;;;;;;;13.25;6.97;;;;;;;;;;5017638;28;20054;-59
2022/01/24 11:27:58;;;;;;;10.38;5.50;;;;;;;;;;5043490;28;20131;-58
2022/01/24 11:30:29;;;;;;;10.40;5.68;;;;;;;;;;5022031;28;20045;-58
2022/01/24 11:32:57;;;;;;;15.15;6.90;;;;;;;;;;5026042;28;20053;-55
2022/01/24 11:35:31;;;;;;;13.38;7.38;;;;;;;;;;5021635;28;20077;-55
2022/01/24 11:37:58;;;;;;;13.50;6.13;;;;;;;;;;5037432;28;20414;-57
2022/01/24 11:40:25;;;;;;;12.15;6.82;;;;;;;;;;5043617;28;20049;-59
2022/01/24 11:42:53;;;;;;;11.80;6.28;;;;;;;;;;5020231;28;20049;-56
2022/01/24 11:45:33;;;;;;;15.90;7.97;;;;;;;;;;5027193;28;20049;-61
2022/01/24 11:48:13;;;;;;;12.27;6.28;;;;;;;;;;5022176;28;20072;-60
2022/01/24 11:50:40;;;;;;;15.57;7.97;;;;;;;;;;5031296;28;20135;-56
2022/01/24 11:53:19;;;;;;;13.00;6.95;;;;;;;;;;5023796;28;20057;-61
2022/01/24 11:55:46;;;;;;;11.68;6.30;;;;;;;;;;5009876;28;20049;-57
2022/01/24 11:58:22;;;;;;;12.00;5.68;;;;;;;;;;5019946;28;20052;-53
2022/01/24 12:00:54;;;;;;;17.15;6.07;;;;;;;;;;5033624;28;20131;-55
2022/01/24 12:03:23;;;;;;;13.55;7.10;;;;;;;;;;5044563;28;20049;-58
2022/01/24 12:05:51;;;;;;;20.08;9.32;;;;;;;;;;5046142;28;20057;-59
2022/01/24 12:08:28;;;;;;;16.13;8.90;;;;;;;;;;5026037;28;20068;-55
2022/01/24 12:10:58;;;;;;;14.93;7.28;;;;;;;;;;5031455;28;20076;-57
2022/01/24 12:13:29;;;;;;;15.18;7.10;;;;;;;;;;5023941;28;20061;-61
2022/01/24 12:16:04;;;;;;;18.23;9.32;;;;;;;;;;5031599;28;20049;-61
2022/01/24 12:18:53;;;;;;;14.35;6.95;;;;;;;;;;5026134;28;20049;-61
2022/01/24 12:21:24;;;;;;;17.88;8.57;;;;;;;;;;5040297;28;20041;-61
2022/01/24 12:23:54;;;;;;;14.82;7.28;;;;;;;;;;5025448;28;20049;-61
2022/01/24 12:26:22;;;;;;;14.57;7.72;;;;;;;;;;5030102;28;20111;-60
2022/01/24 12:28:52;;;;;;;13.98;7.20;;;;;;;;;;5038517;28;20055;-58
2022/01/24 12:31:22;;;;;;;14.65;7.32;;;;;;;;;;5050376;28;20072;-54
2022/01/24 12:33:57;;;;;;;13.20;6.40;;;;;;;;;;5043640;28;20072;-56
2022/01/24 12:36:39;;;;;;;14.85;8.32;;;;;;;;;;5050476;28;20056;-59
2022/01/24 12:39:09;;;;;;;12.05;6.78;;;;;;;;;;5021829;28;20053;-60
2022/01/24 12:41:40;;;;;;;16.25;8.38;;;;;;;;;;5031089;28;20080;-56
2022/01/24 12:47:01;;;;;;;14.30;7.03;;;;;;;;;;5029818;28;20060;-57
2022/01/24 12:49:28;;;;;;;16.83;8.98;;;;;;;;;;5023344;28;20061;-58
2022/01/24 12:51:55;;;;;;;20.75;9.57;;;;;;;;;;5028639;28;20057;-60
2022/01/24 12:54:28;;;;;;;17.65;8.63;;;;;;;;;;5023945;28;20061;-58
2022/01/24 12:56:58;;;;;;;18.17;8.50;;;;;;;;;;5038074;28;20114;-58
2022/01/24 12:59:24;;;;;;;13.98;7.32;;;;;;;;;;5043567;28;20056;-58
2022/01/24 13:01:54;;;;;;;12.10;6.82;;;;;;;;;;5050123;28;20497;-57
2022/01/24 13:04:30;;;;;;;16.85;7.53;;;;;;;;;;5042469;28;20102;-53
2022/01/24 13:06:58;;;;;;;18.33;8.13;;;;;;;;;;5049267;28;20517;-53
2022/01/24 13:09:25;;;;;;;13.35;6.30;;;;;;;;;;5043277;28;20052;-57
2022/01/24 13:11:53;;;;;;;17.90;8.50;;;;;;;;;;5050296;28;20073;-56
2022/01/24 13:14:25;;;;;;;16.63;8.30;;;;;;;;;;5034339;28;20054;-59
2022/01/24 13:22:32;;;;;;;14.30;6.70;;;;;;;;;;5049474;28;20053;-60
2022/01/24 13:25:02;;;;;;;11.80;6.07;;;;;;;;;;5041709;28;20318;-58
2022/01/24 13:27:36;;;;;;;11.43;5.97;;;;;;;;;;5047839;28;20512;-53
2022/01/24 13:30:03;;;;;;;13.20;6.53;;;;;;;;;;5043652;28;20045;-56
2022/01/24 13:32:47;;;;;;;15.02;7.22;;;;;;;;;;5048993;28;20053;-56
2022/01/24 13:35:21;;;;;;;17.58;7.00;;;;;;;;;;5043119;28;20059;-61
2022/01/24 13:37:48;;;;;;;13.63;6.80;;;;;;;;;;5024550;28;20085;-57
2022/01/24 13:40:15;;;;;;;11.65;6.28;;;;;;;;;;5008703;28;20565;-57
2022/01/24 13:42:41;;;;;;;13.73;7.18;;;;;;;;;;5038929;28;20127;-61
2022/01/24 13:45:08;;;;;;;13.77;6.90;;;;;;;;;;5029137;28;20141;-61
2022/01/24 13:47:35;;;;;;;12.48;5.78;;;;;;;;;;5030992;28;20707;-58
2022/01/24 13:50:03;;;;;;;12.23;6.47;;;;;;;;;;5049763;28;20049;-58
2022/01/24 13:52:31;;;;;;;12.18;6.20;;;;;;;;;;5059189;28;20029;-60
2022/01/24 13:55:13;;;;;;;15.82;7.10;;;;;;;;;;5057422;28;20060;-58
2022/01/24 13:57:44;;;;;;;15.88;8.18;;;;;;;;;;5036362;28;20083;-57
2022/01/24 14:00:12;;;;;;;17.45;7.55;;;;;;;;;;5049407;28;20056;-59
2022/01/24 14:02:38;;;;;;;16.23;7.68;;;;;;;;;;5029606;28;20061;-57
2022/01/24 14:05:07;;;;;;;13.95;6.82;;;;;;;;;;5029558;28;20049;-58
2022/01/24 14:07:41;;;;;;;14.10;7.07;;;;;;;;;;5031962;28;20040;-58
2022/01/24 14:10:09;;;;;;;12.73;6.22;;;;;;;;;;5048655;28;20545;-58
2022/01/24 14:12:47;;;;;;;16.38;7.70;;;;;;;;;;5040818;28;20154;-58
2022/01/24 14:15:20;;;;;;;17.33;7.20;;;;;;;;;;5049383;28;20160;-58
2022/01/24 14:18:19;;;;;;;18.35;7.15;;;;;;;;;;5042942;28;20370;-57
2022/01/24 14:20:45;;;;;;;12.63;6.97;;;;;;;;;;5025610;28;20045;-61
2022/01/24 14:23:22;;;;;;;12.45;6.80;;;;;;;;;;5020912;28;20052;-58
2022/01/24 14:25:51;;;;;;;14.82;6.95;;;;;;;;;;5029205;28;20064;-59
2022/01/24 14:28:18;;;;;;;14.27;6.75;;;;;;;;;;5026127;28;20111;-58
2022/01/24 14:30:46;;;;;;;14.65;7.10;;;;;;;;;;5065279;28;20124;-58
2022/01/24 14:33:13;;;;;;;11.67;6.63;;;;;;;;;;5041727;28;20060;-57
2022/01/24 14:35:43;;;;;;;15.10;7.32;;;;;;;;;;5047776;28;20310;-53
2022/01/24 14:38:10;;;;;;;14.40;7.18;;;;;;;;;;5040947;28;20132;-59
2022/01/24 14:40:47;;;;;;;12.70;6.57;;;;;;;;;;5048907;28;20087;-57
2022/01/24 14:45:59;;;;;;;12.85;6.60;;;;;;;;;;5048310;28;20053;-58
2022/01/24 14:48:26;;;;;;;13.32;6.63;;;;;;;;;;5042589;28;20037;-58
2022/01/24 14:50:52;;;;;;;14.88;7.88;;;;;;;;;;5047998;28;20073;-57
2022/01/24 14:53:20;;;;;;;14.80;6.88;;;;;;;;;;5040465;28;20057;-58
2022/01/24 14:55:48;;;;;;;13.98;7.68;;;;;;;;;;5048188;28;20098;-57
2022/01/24 14:58:14;;;;;;;17.07;8.37;;;;;;;;;;5049082;28;20049;-57
2022/01/24 15:00:41;;;;;;;13.57;5.90;;;;;;;;;;5041645;28;20846;-53
2022/01/24 15:03:08;;;;;;;13.68;6.70;;;;;;;;;;5047854;28;20199;-54
2022/01/24 15:05:34;;;;;;;13.20;7.22;;;;;;;;;;5025367;28;20054;-60
2022/01/24 15:08:01;;;;;;;13.75;7.25;;;;;;;;;;5028534;28;20056;-60
2022/01/24 15:10:27;;;;;;;12.65;6.55;;;;;;;;;;5034974;28;20126;-61
2022/01/24 15:13:02;;;;;;;12.38;6.53;;;;;;;;;;5039114;28;20073;-61
2022/01/24 15:15:33;;;;;;;12.82;6.85;;;;;;;;;;5041864;28;20049;-61
2022/01/24 15:24:23;;;;;;;16.17;8.05;;;;;;;;;;4982881;28;20062;-61
2022/01/24 15:26:47;;;;;;;14.60;8.32;;;;;;;;;;5051124;28;20103;-61
2022/01/24 15:29:15;;;;;;;15.38;9.00;;;;;;;;;;5052534;28;20478;-56
2022/01/24 15:31:41;;;;;;;16.47;9.87;;;;;;;;;;5045645;28;20047;-58
2022/01/24 15:34:09;;;;;;;15.68;8.15;;;;;;;;;;5050544;28;20394;-57
2022/01/24 15:36:36;;;;;;;13.00;7.63;;;;;;;;;;5038434;28;20063;-58
2022/01/24 15:39:06;;;;;;;15.57;9.18;;;;;;;;;;5052184;28;20115;-56
2022/01/24 15:41:32;;;;;;;16.52;8.77;;;;;;;;;;5044694;28;20045;-53
2022/01/24 15:44:06;;;;;;;26.27;7.82;;;;;;;;;;5051829;28;20063;-57
2022/01/24 15:49:15;;;;;;;14.35;8.57;;;;;;;;;;5046728;28;20562;-55
2022/01/24 15:51:41;;;;;;;16.55;9.50;;;;;;;;;;5044364;28;20053;-56
2022/01/24 15:54:09;;;;;;;14.25;7.78;;;;;;;;;;5050426;28;20060;-58
2022/01/24 15:59:19;;;;;;;15.65;8.48;;;;;;;;;;5033940;28;20549;-54
2022/01/24 16:01:47;;;;;;;15.82;8.60;;;;;;;;;;5024914;28;20057;-56
2022/01/24 16:04:14;;;;;;;15.93;8.82;;;;;;;;;;5024343;28;20064;-52
2022/01/24 16:06:41;;;;;;;15.82;8.00;;;;;;;;;;5018831;28;20049;-58
2022/01/24 16:09:07;;;;;;;19.23;9.90;;;;;;;;;;5026877;28;20104;-56
2022/01/24 16:11:34;;;;;;;17.48;10.30;;;;;;;;;;5022297;28;20061;-56
2022/01/24 16:14:02;;;;;;;16.25;8.85;;;;;;;;;;5030095;28;20056;-54
2022/01/24 16:16:28;;;;;;;16.67;8.38;;;;;;;;;;5026324;28;20049;-57
2022/01/24 16:18:56;;;;;;;17.08;8.52;;;;;;;;;;5030705;28;20053;-55
2022/01/24 16:21:39;;;;;;;16.33;9.43;;;;;;;;;;5031333;28;20103;-54
2022/01/24 16:27:06;;;;;;;19.65;11.07;;;;;;;;;;4967600;28;20048;-56